Time;durP1;ratioP1;P1;durP2;ratioP2;P2;SDS_P1;SDS_P2;PMS_P1;PMS_P2;Temp;Humidity;BMP_temperature;BMP_pressure;BME280_temperature;BME280_humidity;BME280_pressure;Samples;Min_cycle;Max_cycle;Signal;HPM_P1;HPM_P2
2022/03/23 00:02:26;;;;;;;18.03;14.50;;;12.30;1.00;;;;;;5060374;28;20470;-78
2022/03/23 00:04:56;;;;;;;17.67;13.37;;;12.30;1.00;;;;;;5058231;28;20439;-79
2022/03/23 00:07:24;;;;;;;18.20;12.83;;;12.20;1.00;;;;;;5059704;28;20508;-78
2022/03/23 00:09:53;;;;;;;19.00;12.93;;;12.20;1.00;;;;;;5058444;28;21563;-78
2022/03/23 00:12:25;;;;;;;19.20;12.63;;;12.20;1.00;;;;;;5063208;28;21029;-78
2022/03/23 00:14:54;;;;;;;14.57;11.67;;;12.40;1.00;;;;;;5059640;28;20463;-78
2022/03/23 00:17:22;;;;;;;26.00;14.10;;;12.20;1.00;;;;;;5063960;28;20470;-77
2022/03/23 00:19:50;;;;;;;19.00;12.80;;;12.20;1.00;;;;;;5060856;28;20447;-78
2022/03/23 00:22:20;;;;;;;16.87;11.57;;;12.20;1.00;;;;;;5062956;28;20462;-79
2022/03/23 00:24:49;;;;;;;18.53;11.07;;;12.20;1.00;;;;;;5057128;28;20550;-78
2022/03/23 00:27:17;;;;;;;17.83;12.13;;;12.10;1.00;;;;;;5060678;28;20471;-78
2022/03/23 00:29:45;;;;;;;14.23;10.60;;;12.00;1.00;;;;;;5056720;28;20511;-78
2022/03/23 00:32:14;;;;;;;18.43;11.80;;;12.00;1.00;;;;;;5061403;28;20451;-77
2022/03/23 00:34:42;;;;;;;14.10;12.10;;;12.00;1.00;;;;;;5059450;28;20802;-78
2022/03/23 00:37:10;;;;;;;18.33;11.80;;;12.00;1.00;;;;;;5059374;28;20494;-78
2022/03/23 00:39:40;;;;;;;19.60;13.23;;;11.90;1.00;;;;;;5056484;28;20454;-77
2022/03/23 00:42:08;;;;;;;16.13;11.43;;;11.70;1.00;;;;;;5063554;28;20487;-78
2022/03/23 00:44:37;;;;;;;15.60;11.30;;;11.70;1.00;;;;;;5061809;28;20454;-77
2022/03/23 00:47:05;;;;;;;17.13;11.40;;;11.60;1.00;;;;;;5055771;28;20489;-78
2022/03/23 00:49:33;;;;;;;13.93;10.73;;;11.60;1.00;;;;;;5060705;28;20466;-78
2022/03/23 00:52:05;;;;;;;16.27;10.77;;;11.60;1.00;;;;;;5056006;28;20454;-77
2022/03/23 00:54:35;;;;;;;16.77;11.47;;;11.60;1.00;;;;;;5065716;28;20446;-77
2022/03/23 00:57:06;;;;;;;14.73;10.13;;;11.50;1.00;;;;;;5059020;28;20482;-78
2022/03/23 00:59:35;;;;;;;15.50;11.10;;;11.50;1.00;;;;;;5058940;28;20951;-78
2022/03/23 01:02:04;;;;;;;15.90;10.90;;;11.50;1.00;;;;;;5061001;28;20535;-78
2022/03/23 01:04:32;;;;;;;15.80;10.90;;;11.50;1.00;;;;;;5060654;28;20448;-78
2022/03/23 01:07:01;;;;;;;18.00;12.37;;;11.50;1.00;;;;;;5059055;28;20560;-78
2022/03/23 01:09:29;;;;;;;19.20;12.10;;;11.40;1.00;;;;;;5058231;28;20884;-77
2022/03/23 01:11:57;;;;;;;18.07;11.43;;;11.40;1.00;;;;;;5060887;28;20520;-77
2022/03/23 01:14:27;;;;;;;20.20;10.63;;;11.40;1.00;;;;;;5063531;28;20474;-77
2022/03/23 01:16:55;;;;;;;17.70;12.20;;;11.40;1.00;;;;;;5056202;28;20463;-77
2022/03/23 01:19:25;;;;;;;15.80;10.10;;;11.30;1.00;;;;;;5065181;28;20559;-78
2022/03/23 01:21:54;;;;;;;13.10;11.23;;;11.50;1.00;;;;;;5057893;28;20452;-78
2022/03/23 01:24:22;;;;;;;15.13;10.90;;;11.40;1.00;;;;;;5061562;28;20481;-77
2022/03/23 01:26:50;;;;;;;16.30;11.83;;;11.40;1.00;;;;;;5061900;28;20447;-78
2022/03/23 01:29:19;;;;;;;17.37;10.90;;;11.30;1.00;;;;;;5055294;28;21070;-77
2022/03/23 01:31:48;;;;;;;16.87;10.70;;;11.30;1.00;;;;;;5057842;28;20484;-77
2022/03/23 01:34:17;;;;;;;16.13;12.10;;;11.30;1.00;;;;;;5056784;28;20447;-77
2022/03/23 01:36:45;;;;;;;17.50;11.83;;;11.30;1.00;;;;;;5061323;28;20458;-77
2022/03/23 01:39:13;;;;;;;20.70;10.97;;;11.20;1.00;;;;;;5060890;28;20826;-76
2022/03/23 01:41:41;;;;;;;17.87;12.10;;;11.20;1.00;;;;;;5062552;28;20824;-78
2022/03/23 01:44:14;;;;;;;14.33;11.27;;;11.10;1.00;;;;;;5054746;28;20517;-77
2022/03/23 01:47:06;;;;;;;14.33;10.00;;;11.10;1.00;;;;;;5058910;28;20457;-76
2022/03/23 01:49:35;;;;;;;15.23;9.47;;;11.20;1.00;;;;;;5057668;28;20485;-78
2022/03/23 01:52:05;;;;;;;15.33;10.80;;;11.30;1.00;;;;;;5060705;28;20456;-77
2022/03/23 01:54:36;;;;;;;13.20;10.67;;;11.20;1.00;;;;;;5061276;28;20520;-77
2022/03/23 01:57:05;;;;;;;14.37;10.23;;;11.10;1.00;;;;;;5059208;28;20503;-78
2022/03/23 01:59:35;;;;;;;14.10;10.23;;;11.10;1.00;;;;;;5062263;28;20464;-78
2022/03/23 02:02:05;;;;;;;18.20;11.60;;;11.10;1.00;;;;;;5059474;28;20465;-78
2022/03/23 02:04:34;;;;;;;20.03;11.20;;;11.10;1.00;;;;;;5051678;28;20459;-78
2022/03/23 02:07:03;;;;;;;16.30;10.20;;;11.10;1.00;;;;;;5056852;28;20930;-79
2022/03/23 02:09:32;;;;;;;15.70;10.57;;;11.00;1.00;;;;;;5059286;28;20474;-78
2022/03/23 02:12:02;;;;;;;14.90;9.60;;;11.00;1.00;;;;;;5055140;28;20512;-77
2022/03/23 02:14:30;;;;;;;17.43;10.30;;;11.00;1.00;;;;;;5053316;28;20841;-78
2022/03/23 02:16:59;;;;;;;15.00;11.20;;;11.00;1.00;;;;;;5056452;28;20466;-77
2022/03/23 02:19:29;;;;;;;15.67;9.97;;;10.90;1.00;;;;;;5057383;28;20512;-78
2022/03/23 02:21:58;;;;;;;16.37;9.80;;;11.00;1.00;;;;;;5058501;28;20447;-78
2022/03/23 02:24:28;;;;;;;15.97;9.93;;;10.90;1.00;;;;;;5060919;28;20464;-78
2022/03/23 02:26:57;;;;;;;15.40;9.87;;;10.90;1.00;;;;;;5062848;28;20468;-77
2022/03/23 02:29:29;;;;;;;14.33;9.83;;;10.90;1.00;;;;;;5055883;28;20833;-77
2022/03/23 02:31:58;;;;;;;16.33;10.57;;;11.00;1.00;;;;;;5059682;28;21678;-77
2022/03/23 02:34:26;;;;;;;15.33;10.60;;;10.70;1.00;;;;;;5056550;28;20503;-79
2022/03/23 02:36:58;;;;;;;14.00;10.10;;;10.80;1.00;;;;;;5055080;28;20477;-77
2022/03/23 02:39:27;;;;;;;15.40;9.97;;;10.70;1.00;;;;;;5058807;28;20453;-79
2022/03/23 02:41:56;;;;;;;10.97;8.80;;;10.70;1.00;;;;;;5060984;28;20442;-78
2022/03/23 02:44:26;;;;;;;12.67;9.53;;;10.60;1.00;;;;;;5058458;28;20455;-79
2022/03/23 02:46:54;;;;;;;15.13;11.10;;;10.70;1.00;;;;;;5057703;28;20461;-79
2022/03/23 02:49:23;;;;;;;15.50;10.80;;;10.60;1.00;;;;;;5056870;28;20935;-77
2022/03/23 02:51:51;;;;;;;14.73;9.87;;;10.50;1.00;;;;;;5060914;28;20450;-77
2022/03/23 03:03:18;;;;;;;14.60;10.40;;;10.50;1.00;;;;;;5059630;28;20551;-78
2022/03/23 03:05:46;;;;;;;15.37;10.50;;;10.40;1.00;;;;;;5061203;28;20903;-78
2022/03/23 03:11:02;;;;;;;14.90;9.27;;;10.30;1.00;;;;;;5063529;28;20460;-77
2022/03/23 03:13:30;;;;;;;16.40;10.20;;;10.30;1.00;;;;;;5064769;28;20458;-78
2022/03/23 03:16:01;;;;;;;19.37;11.23;;;10.60;1.00;;;;;;5064432;28;20465;-77
2022/03/23 03:18:32;;;;;;;13.70;9.77;;;10.30;1.00;;;;;;5058572;28;20478;-78
2022/03/23 03:21:00;;;;;;;16.70;9.10;;;10.30;1.00;;;;;;5065433;28;20466;-78
2022/03/23 03:23:30;;;;;;;14.37;9.60;;;10.30;1.00;;;;;;5066934;28;20457;-77
2022/03/23 03:25:58;;;;;;;12.03;9.40;;;10.30;1.00;;;;;;5061013;28;20523;-77
2022/03/23 03:28:28;;;;;;;12.63;9.33;;;10.30;1.00;;;;;;5066883;28;20991;-78
2022/03/23 03:30:57;;;;;;;16.37;10.03;;;10.40;1.00;;;;;;5063478;28;20442;-77
2022/03/23 03:37:06;;;;;;;13.93;8.77;;;10.40;1.00;;;;;;5061509;28;20818;-77
2022/03/23 03:39:34;;;;;;;13.50;9.80;;;10.40;1.00;;;;;;5063217;28;20460;-77
2022/03/23 03:42:03;;;;;;;14.83;10.10;;;10.30;1.00;;;;;;5055374;28;20483;-79
2022/03/23 03:44:32;;;;;;;16.37;10.73;;;10.20;1.00;;;;;;5066682;28;20452;-78
2022/03/23 03:47:01;;;;;;;12.13;9.30;;;10.10;1.00;;;;;;5057297;28;20476;-78
2022/03/23 03:49:33;;;;;;;13.27;8.93;;;10.10;1.00;;;;;;5059383;28;20506;-77
2022/03/23 03:52:02;;;;;;;18.23;10.60;;;10.00;1.00;;;;;;5062766;28;20458;-78
2022/03/23 03:54:30;;;;;;;14.10;10.20;;;10.10;1.00;;;;;;5062654;28;20998;-78
2022/03/23 03:56:58;;;;;;;11.53;10.23;;;10.20;1.00;;;;;;5062733;28;20476;-78
2022/03/23 03:59:26;;;;;;;14.17;8.97;;;10.10;1.00;;;;;;5063060;28;20831;-78
2022/03/23 04:01:56;;;;;;;20.53;10.50;;;10.10;1.00;;;;;;5056572;28;20451;-78
2022/03/23 04:04:24;;;;;;;17.53;9.53;;;10.20;1.00;;;;;;5058912;28;20456;-79
2022/03/23 04:06:52;;;;;;;12.70;8.70;;;10.20;1.00;;;;;;5063331;28;20518;-78
2022/03/23 04:09:20;;;;;;;15.87;10.33;;;10.10;1.00;;;;;;5058488;28;20505;-79
2022/03/23 04:11:49;;;;;;;18.90;10.70;;;10.10;1.00;;;;;;5063923;28;20461;-78
2022/03/23 04:14:17;;;;;;;14.13;10.90;;;10.00;1.00;;;;;;5060539;28;20449;-78
2022/03/23 04:16:46;;;;;;;15.43;10.87;;;9.90;1.00;;;;;;5061800;28;20458;-78
2022/03/23 04:19:16;;;;;;;15.07;9.77;;;10.00;1.00;;;;;;5055930;28;20463;-79
2022/03/23 04:21:45;;;;;;;11.90;9.07;;;9.90;1.00;;;;;;5061846;28;20449;-78
2022/03/23 04:24:13;;;;;;;12.20;9.10;;;10.00;1.00;;;;;;5060336;28;20479;-78
2022/03/23 04:26:44;;;;;;;13.97;9.20;;;10.00;1.00;;;;;;5064591;28;20461;-78
2022/03/23 04:29:12;;;;;;;16.70;10.93;;;9.90;1.00;;;;;;5059425;28;20505;-78
2022/03/23 04:31:40;;;;;;;14.07;9.60;;;9.90;1.00;;;;;;5060166;28;20460;-79
2022/03/23 04:34:09;;;;;;;11.57;9.30;;;9.80;1.00;;;;;;5059092;28;20470;-78
2022/03/23 04:36:39;;;;;;;15.57;9.97;;;9.80;1.00;;;;;;5061104;28;20446;-78
2022/03/23 04:39:07;;;;;;;14.07;10.53;;;9.80;1.00;;;;;;5055102;28;20456;-78
2022/03/23 04:41:35;;;;;;;14.57;11.13;;;9.80;1.00;;;;;;5062015;28;20960;-78
2022/03/23 04:44:04;;;;;;;13.73;9.10;;;9.80;1.00;;;;;;5062736;28;20448;-79
2022/03/23 04:46:32;;;;;;;14.50;9.00;;;9.70;1.00;;;;;;5062308;28;21227;-79
2022/03/23 04:49:01;;;;;;;19.93;11.13;;;9.70;1.00;;;;;;5063446;28;20472;-78
2022/03/23 04:51:31;;;;;;;15.43;9.87;;;9.70;1.00;;;;;;5062349;28;20492;-79
2022/03/23 04:54:02;;;;;;;14.83;9.53;;;9.80;1.00;;;;;;5064491;28;20474;-78
2022/03/23 04:56:30;;;;;;;20.00;9.63;;;9.70;1.00;;;;;;5057022;28;20463;-78
2022/03/23 04:58:59;;;;;;;16.38;10.82;;;9.70;1.00;;;;;;5060428;28;20451;-78
2022/03/23 05:01:27;;;;;;;13.20;9.93;;;9.70;1.00;;;;;;5058753;28;20274;-77
2022/03/23 05:03:57;;;;;;;14.23;10.40;;;9.80;1.00;;;;;;5061681;28;20458;-77
2022/03/23 05:06:25;;;;;;;15.27;9.03;;;9.70;1.00;;;;;;5057217;28;20465;-77
2022/03/23 05:08:53;;;;;;;12.97;9.37;;;9.60;1.00;;;;;;5056958;28;20476;-78
2022/03/23 05:11:23;;;;;;;12.53;9.90;;;9.70;1.00;;;;;;5056465;28;20489;-79
2022/03/23 05:13:51;;;;;;;12.03;9.57;;;9.70;1.00;;;;;;5059852;28;20447;-78
2022/03/23 05:16:20;;;;;;;14.27;9.77;;;9.80;1.00;;;;;;5060328;28;20467;-78
2022/03/23 05:18:49;;;;;;;15.60;10.67;;;9.80;1.00;;;;;;5059123;28;20535;-77
2022/03/23 05:21:17;;;;;;;14.77;10.60;;;9.80;1.00;;;;;;5053588;28;20446;-79
2022/03/23 05:23:46;;;;;;;14.57;10.20;;;9.70;1.00;;;;;;5057342;28;20512;-78
2022/03/23 05:26:14;;;;;;;14.27;9.70;;;9.60;1.00;;;;;;5058554;28;20448;-77
2022/03/23 05:28:44;;;;;;;13.83;9.77;;;9.60;1.00;;;;;;5058360;28;20466;-77
2022/03/23 05:31:12;;;;;;;15.60;9.90;;;9.50;1.00;;;;;;5054399;28;21714;-77
2022/03/23 05:33:40;;;;;;;15.90;10.93;;;9.60;1.00;;;;;;5056866;28;20461;-76
2022/03/23 05:36:09;;;;;;;15.23;11.10;;;9.40;1.00;;;;;;5058505;28;20513;-77
2022/03/23 05:38:37;;;;;;;12.40;8.93;;;9.40;1.00;;;;;;5056806;28;20948;-76
2022/03/23 05:41:05;;;;;;;16.60;10.40;;;9.40;1.00;;;;;;5057130;28;20444;-76
2022/03/23 05:43:33;;;;;;;14.00;9.77;;;9.50;1.00;;;;;;5054523;28;20457;-75
2022/03/23 05:46:03;;;;;;;14.13;9.77;;;9.50;1.00;;;;;;5058491;28;20465;-76
2022/03/23 05:48:31;;;;;;;14.13;10.40;;;9.50;1.00;;;;;;5053072;28;20479;-75
2022/03/23 05:51:02;;;;;;;14.37;10.13;;;9.40;1.00;;;;;;5053841;28;20548;-76
2022/03/23 05:53:30;;;;;;;14.47;8.80;;;9.40;1.00;;;;;;5054394;28;20456;-76
2022/03/23 05:55:58;;;;;;;16.43;10.20;;;9.40;1.00;;;;;;5057143;28;20455;-76
2022/03/23 05:58:26;;;;;;;14.47;9.47;;;9.40;1.00;;;;;;5060247;28;21082;-76
2022/03/23 06:00:55;;;;;;;14.10;9.90;;;9.40;1.00;;;;;;5056605;28;21014;-76
2022/03/23 06:03:25;;;;;;;11.97;10.40;;;9.50;1.00;;;;;;5062701;28;20546;-76
2022/03/23 06:05:53;;;;;;;16.50;10.70;;;9.40;1.00;;;;;;5057410;28;20527;-77
2022/03/23 06:08:21;;;;;;;13.10;8.93;;;9.50;1.00;;;;;;5052135;28;20546;-76
2022/03/23 06:10:50;;;;;;;11.97;9.10;;;9.50;1.00;;;;;;5049221;28;20485;-76
2022/03/23 06:13:18;;;;;;;15.07;9.67;;;9.50;1.00;;;;;;5050470;28;20480;-77
2022/03/23 06:15:47;;;;;;;16.67;10.30;;;9.50;1.00;;;;;;5055657;28;20453;-76
2022/03/23 06:18:15;;;;;;;17.10;9.87;;;9.70;1.00;;;;;;5058549;28;20484;-76
2022/03/23 06:20:44;;;;;;;15.80;10.07;;;9.40;1.00;;;;;;5057222;28;20470;-76
2022/03/23 06:23:13;;;;;;;12.80;9.50;;;9.50;1.00;;;;;;5062229;28;20479;-77
2022/03/23 06:25:41;;;;;;;14.27;10.80;;;9.60;1.00;;;;;;5060338;28;20475;-76
2022/03/23 06:28:10;;;;;;;13.67;9.27;;;9.90;1.00;;;;;;5060782;28;20482;-76
2022/03/23 06:30:38;;;;;;;15.20;11.13;;;9.90;1.00;;;;;;5058101;28;20475;-76
2022/03/23 06:33:06;;;;;;;14.73;10.43;;;10.10;1.00;;;;;;5063248;28;20464;-76
2022/03/23 06:35:36;;;;;;;15.83;10.17;;;10.30;1.00;;;;;;5056257;28;21068;-76
2022/03/23 06:38:05;;;;;;;14.30;10.40;;;10.40;1.00;;;;;;5055526;28;20473;-78
2022/03/23 06:40:34;;;;;;;16.37;11.00;;;10.50;1.00;;;;;;5055068;28;20452;-77
2022/03/23 06:43:02;;;;;;;17.63;9.93;;;10.60;1.00;;;;;;5056550;28;20455;-76
2022/03/23 06:45:31;;;;;;;17.60;10.03;;;10.50;1.00;;;;;;5055759;28;20460;-76
2022/03/23 06:47:59;;;;;;;16.33;9.67;;;10.50;1.00;;;;;;5056332;28;20478;-76
2022/03/23 06:50:27;;;;;;;17.03;11.33;;;10.70;1.00;;;;;;5057060;28;20975;-77
2022/03/23 06:52:56;;;;;;;18.97;10.13;;;10.80;1.00;;;;;;5059685;28;20459;-77
2022/03/23 06:55:25;;;;;;;16.23;10.97;;;11.20;1.00;;;;;;5052979;28;20444;-76
2022/03/23 06:57:53;;;;;;;18.40;10.70;;;11.10;1.00;;;;;;5062609;28;20486;-78
2022/03/23 07:00:21;;;;;;;15.27;11.60;;;11.30;1.00;;;;;;5051024;28;22494;-75
2022/03/23 07:02:50;;;;;;;19.13;10.73;;;11.20;1.00;;;;;;5057559;28;20462;-77
2022/03/23 07:05:20;;;;;;;13.77;9.53;;;11.20;1.00;;;;;;5057397;28;20801;-76
2022/03/23 07:10:32;;;;;;;15.70;11.37;;;11.30;1.00;;;;;;5039037;28;20551;-77
2022/03/23 07:13:01;;;;;;;17.20;11.00;;;11.30;1.00;;;;;;5057674;28;21026;-77
2022/03/23 07:15:29;;;;;;;20.10;11.60;;;11.40;1.00;;;;;;5056948;28;20951;-77
2022/03/23 07:17:57;;;;;;;13.30;10.87;;;11.50;1.00;;;;;;5059415;28;21080;-76
2022/03/23 07:20:27;;;;;;;14.17;10.00;;;11.60;1.00;;;;;;5058566;28;20473;-77
2022/03/23 07:22:55;;;;;;;19.50;11.43;;;11.70;1.00;;;;;;5055959;28;20459;-75
2022/03/23 07:25:23;;;;;;;17.37;11.60;;;11.80;1.00;;;;;;5056490;28;20976;-76
2022/03/23 07:27:53;;;;;;;14.20;11.20;;;11.90;1.00;;;;;;5054894;28;20520;-76
2022/03/23 07:30:21;;;;;;;17.33;10.93;;;12.00;1.00;;;;;;5054904;28;20454;-76
2022/03/23 07:32:51;;;;;;;15.47;10.93;;;12.00;1.00;;;;;;5055202;28;20475;-77
2022/03/23 07:35:19;;;;;;;12.60;9.63;;;12.00;1.00;;;;;;5058399;28;20470;-77
2022/03/23 07:37:48;;;;;;;15.90;11.40;;;12.10;1.00;;;;;;5057630;28;21345;-76
2022/03/23 07:40:16;;;;;;;13.90;10.87;;;12.10;1.00;;;;;;5060082;28;20439;-77
2022/03/23 07:42:44;;;;;;;13.47;10.20;;;12.20;1.00;;;;;;5054237;28;20532;-76
2022/03/23 07:45:14;;;;;;;17.93;11.93;;;12.40;1.00;;;;;;5059863;28;20463;-78
2022/03/23 07:47:45;;;;;;;16.53;10.93;;;12.60;1.00;;;;;;5055800;28;20474;-76
2022/03/23 07:50:13;;;;;;;14.80;10.73;;;12.60;1.00;;;;;;5058889;28;20477;-77
2022/03/23 07:52:41;;;;;;;15.07;10.77;;;12.70;1.00;;;;;;5055550;28;20477;-76
2022/03/23 07:55:10;;;;;;;17.93;11.70;;;12.70;1.00;;;;;;5065616;28;21310;-77
2022/03/23 07:57:38;;;;;;;17.53;13.07;;;12.90;1.00;;;;;;5059176;28;20525;-76
2022/03/23 08:00:07;;;;;;;18.20;11.93;;;13.10;1.00;;;;;;5060838;28;21062;-78
2022/03/23 08:02:37;;;;;;;18.43;10.20;;;13.30;1.00;;;;;;5062489;28;20794;-76
2022/03/23 08:05:07;;;;;;;15.10;11.63;;;13.50;1.00;;;;;;5058625;28;20456;-77
2022/03/23 08:07:35;;;;;;;14.03;10.63;;;13.70;1.00;;;;;;5062516;28;20574;-76
2022/03/23 08:10:04;;;;;;;18.23;11.77;;;14.00;1.00;;;;;;5060921;28;20520;-77
2022/03/23 08:12:32;;;;;;;13.80;10.13;;;14.20;1.00;;;;;;5057594;28;20516;-77
2022/03/23 08:15:00;;;;;;;16.73;11.47;;;14.40;1.00;;;;;;5059960;28;20465;-77
2022/03/23 08:17:28;;;;;;;14.60;10.20;;;14.70;1.00;;;;;;5060592;28;20534;-77
2022/03/23 08:22:40;;;;;;;17.13;11.17;;;15.00;1.00;;;;;;5053438;28;20540;-78
2022/03/23 08:25:09;;;;;;;15.97;11.87;;;15.10;1.00;;;;;;5059529;28;20461;-77
2022/03/23 08:27:37;;;;;;;14.07;11.47;;;15.20;1.00;;;;;;5062127;28;20546;-77
2022/03/23 08:30:07;;;;;;;16.10;10.90;;;15.40;1.00;;;;;;5057430;28;20461;-76
2022/03/23 08:32:35;;;;;;;15.77;11.37;;;15.50;1.00;;;;;;5059108;28;20486;-78
2022/03/23 08:35:06;;;;;;;15.67;11.80;;;15.60;1.00;;;;;;5056815;28;20824;-77
2022/03/23 08:37:34;;;;;;;14.67;11.93;;;15.70;1.00;;;;;;5060213;28;20500;-77
2022/03/23 08:40:03;;;;;;;15.20;11.20;;;15.80;1.00;;;;;;5064225;28;20462;-76
2022/03/23 08:42:31;;;;;;;15.30;11.50;;;15.90;1.00;;;;;;5064900;28;20449;-77
2022/03/23 08:44:59;;;;;;;14.63;12.23;;;15.90;1.00;;;;;;5066575;28;20511;-77
2022/03/23 08:47:28;;;;;;;17.40;11.60;;;15.90;1.00;;;;;;5061455;28;20489;-77
2022/03/23 08:49:56;;;;;;;18.50;11.90;;;15.80;1.00;;;;;;5059951;28;20512;-77
2022/03/23 08:52:28;;;;;;;13.40;10.50;;;15.90;1.00;;;;;;5064378;28;20481;-78
2022/03/23 08:54:57;;;;;;;14.83;10.47;;;15.90;1.00;;;;;;5062381;28;20956;-77
2022/03/23 08:57:25;;;;;;;15.50;11.80;;;16.00;1.00;;;;;;5057854;28;20489;-77
2022/03/23 08:59:53;;;;;;;12.30;10.47;;;16.10;1.00;;;;;;5059808;28;20458;-76
2022/03/23 09:02:22;;;;;;;16.40;11.10;;;16.10;1.00;;;;;;5061401;28;20523;-77
2022/03/23 09:04:50;;;;;;;16.57;11.50;;;16.20;1.00;;;;;;5059063;28;20467;-77
2022/03/23 09:07:18;;;;;;;15.67;10.43;;;16.30;1.00;;;;;;5057920;28;20485;-77
2022/03/23 09:09:48;;;;;;;17.20;10.37;;;16.40;1.00;;;;;;5058915;28;20814;-76
2022/03/23 09:12:16;;;;;;;15.20;11.47;;;16.40;1.00;;;;;;5061116;28;21131;-77
2022/03/23 09:14:45;;;;;;;17.90;11.43;;;16.50;1.00;;;;;;5057385;28;20991;-76
2022/03/23 09:17:14;;;;;;;15.43;11.30;;;16.60;1.00;;;;;;5066380;28;20489;-76
2022/03/23 09:19:42;;;;;;;13.00;10.20;;;16.60;1.00;;;;;;5060763;28;20463;-78
2022/03/23 09:22:10;;;;;;;14.23;9.43;;;16.60;1.00;;;;;;5058588;28;20452;-77
2022/03/23 09:24:39;;;;;;;15.57;10.90;;;16.60;1.00;;;;;;5061942;28;20473;-77
2022/03/23 09:27:08;;;;;;;14.80;10.97;;;16.60;1.00;;;;;;5062601;28;20483;-77
2022/03/23 09:29:36;;;;;;;15.37;11.20;;;16.60;1.00;;;;;;5057476;28;20978;-77
2022/03/23 09:32:09;;;;;;;12.10;9.07;;;16.70;1.00;;;;;;5055007;28;20499;-77
2022/03/23 09:34:38;;;;;;;11.73;9.70;;;16.90;1.00;;;;;;5060910;28;20493;-76
2022/03/23 09:39:58;;;;;;;15.60;11.27;;;17.00;1.00;;;;;;5052713;28;20952;-77
2022/03/23 09:42:28;;;;;;;14.27;10.63;;;17.10;1.00;;;;;;5066377;28;20938;-76
2022/03/23 09:44:57;;;;;;;10.50;9.37;;;17.10;1.00;;;;;;5063004;28;20496;-78
2022/03/23 09:47:25;;;;;;;11.30;9.80;;;17.20;1.00;;;;;;5056496;28;20482;-77
2022/03/23 09:49:53;;;;;;;12.73;9.57;;;17.30;1.00;;;;;;5058736;28;20460;-76
2022/03/23 09:52:21;;;;;;;10.60;9.07;;;17.30;1.00;;;;;;5058839;28;20491;-77
2022/03/23 09:54:55;;;;;;;11.10;8.50;;;17.30;1.00;;;;;;5056556;28;21003;-77
2022/03/23 09:57:23;;;;;;;10.53;6.87;;;17.40;1.00;;;;;;5055950;28;20568;-75
2022/03/23 09:59:53;;;;;;;6.80;5.90;;;17.60;1.00;;;;;;5060287;28;20472;-77
2022/03/23 10:03:21;;;;;;;7.83;7.03;;;17.70;1.00;;;;;;5064303;28;20458;-77
2022/03/23 10:06:30;;;;;;;5.83;5.07;;;17.90;1.00;;;;;;5061604;28;20573;-79
2022/03/23 10:09:12;;;;;;;5.93;4.50;;;18.10;1.00;;;;;;5057578;28;21138;-77
2022/03/23 10:12:23;;;;;;;5.63;4.77;;;18.30;1.00;;;;;;5057666;28;20564;-78
2022/03/23 10:15:42;;;;;;;6.90;5.33;;;18.40;1.00;;;;;;5061029;28;20501;-79
2022/03/23 10:18:55;;;;;;;5.00;4.50;;;18.50;1.00;;;;;;5057801;28;21036;-79
2022/03/23 10:21:26;;;;;;;6.20;5.00;;;18.60;1.00;;;;;;5035988;28;20488;-79
2022/03/23 10:24:33;;;;;;;7.67;5.23;;;18.70;1.00;;;;;;5053214;28;20481;-77
2022/03/23 10:27:13;;;;;;;5.77;5.20;;;18.80;1.00;;;;;;5059509;28;20616;-79
2022/03/23 10:29:43;;;;;;;5.33;4.87;;;18.80;1.00;;;;;;5058089;28;20449;-79
2022/03/23 10:32:13;;;;;;;7.80;4.70;;;18.90;1.00;;;;;;5056403;28;20558;-78
2022/03/23 10:34:48;;;;;;;5.73;5.20;;;19.00;1.00;;;;;;5055866;28;20513;-79
2022/03/23 10:37:23;;;;;;;8.83;5.90;;;19.00;1.00;;;;;;5053422;28;20486;-78
2022/03/23 10:39:52;;;;;;;5.70;5.10;;;19.10;1.00;;;;;;5059173;28;21276;-79
2022/03/23 10:42:22;;;;;;;8.23;5.10;;;19.20;1.00;;;;;;5057823;28;20454;-78
2022/03/23 10:44:51;;;;;;;17.80;8.53;;;19.20;1.00;;;;;;5053205;28;20447;-78
2022/03/23 10:47:28;;;;;;;8.30;6.17;;;19.30;1.00;;;;;;5056558;28;20474;-78
2022/03/23 10:50:05;;;;;;;6.60;5.63;;;19.40;1.00;;;;;;5058418;28;20466;-78
2022/03/23 10:52:34;;;;;;;6.20;5.53;;;19.40;1.00;;;;;;5060121;28;20462;-78
2022/03/23 10:55:06;;;;;;;5.60;5.10;;;19.40;1.00;;;;;;5056170;28;20455;-80
2022/03/23 11:01:27;;;;;;;6.10;4.83;;;19.50;1.00;;;;;;5004953;28;20487;-78
2022/03/23 11:04:09;;;;;;;6.00;5.40;;;19.50;1.00;;;;;;5058665;28;20455;-78
2022/03/23 11:06:42;;;;;;;5.63;5.10;;;19.60;1.00;;;;;;5059194;28;20466;-78
2022/03/23 11:17:49;;;;;;;4.67;4.20;;;19.60;1.00;;;;;;5053993;28;20470;-78
2022/03/23 11:20:17;;;;;;;5.93;4.60;;;19.70;1.00;;;;;;5054121;28;20454;-78
2022/03/23 11:22:46;;;;;;;5.70;4.30;;;19.70;1.00;;;;;;5054349;28;22222;-76
2022/03/23 11:25:14;;;;;;;4.67;4.17;;;19.80;1.00;;;;;;5059517;28;20462;-78
2022/03/23 11:27:42;;;;;;;6.00;4.67;;;19.90;1.00;;;;;;5057737;28;20547;-79
2022/03/23 11:30:12;;;;;;;5.37;4.83;;;19.90;1.00;;;;;;5062961;28;20473;-79
2022/03/23 11:32:40;;;;;;;4.50;4.10;;;20.00;1.00;;;;;;5063129;28;20496;-78
2022/03/23 11:35:11;;;;;;;5.00;3.70;;;20.00;1.00;;;;;;5063770;28;21001;-78
2022/03/23 11:37:41;;;;;;;6.40;3.97;;;20.00;1.00;;;;;;5061728;28;20475;-78
2022/03/23 11:40:10;;;;;;;4.93;4.40;;;20.00;1.00;;;;;;5063342;28;20458;-78
2022/03/23 11:42:39;;;;;;;5.33;4.07;;;20.10;1.00;;;;;;5060900;28;20969;-78
2022/03/23 11:45:12;;;;;;;5.03;4.50;;;20.00;1.00;;;;;;5064704;28;21095;-78
2022/03/23 11:47:48;;;;;;;5.17;4.10;;;20.00;1.00;;;;;;5059479;28;20554;-78
2022/03/23 11:50:26;;;;;;;5.40;3.40;;;20.00;1.00;;;;;;5063984;28;20491;-78
2022/03/23 11:53:00;;;;;;;4.23;3.90;;;20.00;1.00;;;;;;5067069;28;20450;-79
2022/03/23 11:55:38;;;;;;;4.60;3.83;;;20.00;1.00;;;;;;5062482;28;21228;-78
2022/03/23 11:58:16;;;;;;;7.80;5.73;;;20.10;1.00;;;;;;5063436;28;20481;-79
2022/03/23 12:00:47;;;;;;;4.13;3.47;;;20.10;1.00;;;;;;5063919;28;20454;-78
2022/03/23 12:03:35;;;;;;;3.27;2.97;;;20.20;1.00;;;;;;5062496;28;21076;-78
2022/03/23 12:06:11;;;;;;;4.67;2.90;;;20.20;1.00;;;;;;5061077;28;20484;-78
2022/03/23 12:08:50;;;;;;;3.20;3.00;;;20.30;1.00;;;;;;5060543;28;20478;-78
2022/03/23 12:11:39;;;;;;;5.80;4.20;;;20.40;7.50;;;;;;5058503;28;20954;-79
2022/03/23 12:14:09;;;;;;;6.53;4.80;;;20.30;1.00;;;;;;5062289;28;20489;-78
2022/03/23 12:17:06;;;;;;;5.23;4.13;;;20.30;1.00;;;;;;5061476;28;20473;-78
2022/03/23 12:20:07;;;;;;;7.07;5.00;;;20.20;1.00;;;;;;5060817;28;20455;-78
2022/03/23 12:22:55;;;;;;;3.60;3.30;;;20.20;1.00;;;;;;5058782;28;20467;-79
2022/03/23 12:25:34;;;;;;;4.23;3.83;;;20.20;1.00;;;;;;5062716;28;20549;-78
2022/03/23 12:28:26;;;;;;;6.87;3.87;;;20.20;1.00;;;;;;5056224;28;20478;-78
2022/03/23 12:31:09;;;;;;;3.83;3.43;;;20.30;1.00;;;;;;5061699;28;20512;-78
2022/03/23 12:34:14;;;;;;;3.80;3.33;;;20.40;1.00;;;;;;5058363;28;20482;-78
2022/03/23 12:37:00;;;;;;;6.37;4.27;;;20.50;1.00;;;;;;5060048;28;20973;-78
2022/03/23 12:39:32;;;;;;;4.97;4.57;;;20.60;1.00;;;;;;5059629;28;21043;-78
2022/03/23 12:42:04;;;;;;;4.40;4.00;;;20.70;1.00;;;;;;5063100;28;20443;-78
2022/03/23 12:44:35;;;;;;;4.20;3.80;;;20.70;1.00;;;;;;5062959;28;20459;-78
2022/03/23 12:47:06;;;;;;;5.83;5.33;;;20.70;1.00;;;;;;5062385;28;20487;-79
2022/03/23 12:58:04;;;;;;;5.67;5.17;;;20.90;1.00;;;;;;5065270;28;20748;-78
2022/03/23 13:00:37;;;;;;;4.97;4.23;;;20.80;1.00;;;;;;5062642;28;20455;-79
2022/03/23 13:03:50;;;;;;;5.97;5.27;;;20.80;1.00;;;;;;5056207;28;21006;-78
2022/03/23 13:06:20;;;;;;;5.73;4.80;;;20.60;1.00;;;;;;5056417;28;20458;-78
2022/03/23 13:08:49;;;;;;;5.10;4.60;;;20.50;1.00;;;;;;5058534;28;20470;-78
2022/03/23 13:11:21;;;;;;;4.60;4.27;;;20.60;1.00;;;;;;5058153;28;20508;-78
2022/03/23 13:13:51;;;;;;;7.67;5.47;;;20.70;1.00;;;;;;5060559;28;20451;-78
2022/03/23 13:16:22;;;;;;;4.97;4.57;;;20.70;1.00;;;;;;5057944;28;20966;-78
2022/03/23 13:18:54;;;;;;;4.07;3.77;;;20.70;1.00;;;;;;5060885;28;20475;-78
2022/03/23 13:21:25;;;;;;;4.93;4.17;;;20.80;1.00;;;;;;5057877;28;21008;-79
2022/03/23 13:23:54;;;;;;;5.30;4.80;;;20.90;1.00;;;;;;5053916;28;20535;-78
2022/03/23 13:26:25;;;;;;;5.40;4.90;;;20.90;1.00;;;;;;5056581;28;20519;-78
2022/03/23 13:28:58;;;;;;;4.97;4.57;;;20.80;1.00;;;;;;5054679;28;20529;-78
2022/03/23 13:31:31;;;;;;;5.03;3.97;;;20.90;1.00;;;;;;5057131;28;20973;-78
2022/03/23 13:34:02;;;;;;;6.87;4.97;;;21.00;1.00;;;;;;5057362;28;20460;-79
2022/03/23 13:36:30;;;;;;;5.93;4.60;;;21.00;1.00;;;;;;5055845;28;20483;-78
2022/03/23 13:38:58;;;;;;;5.17;4.67;;;20.90;1.00;;;;;;5060555;28;20476;-78
2022/03/23 13:44:12;;;;;;;5.53;4.83;;;21.10;1.00;;;;;;5029718;28;20450;-78
2022/03/23 13:46:41;;;;;;;6.43;5.20;;;21.10;1.00;;;;;;5056558;28;20463;-79
2022/03/23 13:49:11;;;;;;;5.80;4.80;;;21.20;1.00;;;;;;5061580;28;20489;-77
2022/03/23 13:51:43;;;;;;;5.83;4.97;;;21.50;1.00;;;;;;5060278;28;20500;-78
2022/03/23 13:54:14;;;;;;;7.97;6.30;;;21.20;1.00;;;;;;5057875;28;21108;-77